sensor_id;sensor_type;location;lat;lon;timestamp;P1;durP1;ratioP1;P2;durP2;ratioP2
9076;SDS011;4574;51.072;17.174;2023-05-29T00:01:58;5.53;;;3.77;;
9076;SDS011;4574;51.072;17.174;2023-05-29T00:04:28;8.80;;;3.93;;
9076;SDS011;4574;51.072;17.174;2023-05-29T00:06:57;8.57;;;3.47;;
9076;SDS011;4574;51.072;17.174;2023-05-29T00:09:26;8.93;;;4.07;;
9076;SDS011;4574;51.072;17.174;2023-05-29T00:11:54;5.37;;;3.50;;
9076;SDS011;4574;51.072;17.174;2023-05-29T00:14:25;7.13;;;4.00;;
9076;SDS011;4574;51.072;17.174;2023-05-29T00:17:00;13.93;;;3.50;;
9076;SDS011;4574;51.072;17.174;2023-05-29T00:19:30;14.57;;;3.67;;
9076;SDS011;4574;51.072;17.174;2023-05-29T00:21:59;9.70;;;3.63;;
9076;SDS011;4574;51.072;17.174;2023-05-29T00:24:28;6.57;;;3.10;;
9076;SDS011;4574;51.072;17.174;2023-05-29T00:26:56;8.97;;;3.87;;
9076;SDS011;4574;51.072;17.174;2023-05-29T00:29:25;5.33;;;3.33;;
9076;SDS011;4574;51.072;17.174;2023-05-29T00:31:54;7.23;;;3.77;;
9076;SDS011;4574;51.072;17.174;2023-05-29T00:34:23;7.03;;;4.37;;
9076;SDS011;4574;51.072;17.174;2023-05-29T00:36:53;8.57;;;5.10;;
9076;SDS011;4574;51.072;17.174;2023-05-29T00:39:22;7.73;;;4.60;;
9076;SDS011;4574;51.072;17.174;2023-05-29T00:41:51;16.77;;;4.87;;
9076;SDS011;4574;51.072;17.174;2023-05-29T00:44:20;10.73;;;5.10;;
9076;SDS011;4574;51.072;17.174;2023-05-29T00:46:49;13.00;;;5.70;;
9076;SDS011;4574;51.072;17.174;2023-05-29T00:49:21;10.90;;;5.60;;
9076;SDS011;4574;51.072;17.174;2023-05-29T00:51:52;16.40;;;5.93;;
9076;SDS011;4574;51.072;17.174;2023-05-29T00:54:25;14.03;;;6.17;;
9076;SDS011;4574;51.072;17.174;2023-05-29T00:56:56;11.87;;;5.93;;
9076;SDS011;4574;51.072;17.174;2023-05-29T00:59:26;13.20;;;5.10;;
9076;SDS011;4574;51.072;17.174;2023-05-29T01:01:56;10.17;;;5.50;;
9076;SDS011;4574;51.072;17.174;2023-05-29T01:04:26;10.80;;;5.57;;
9076;SDS011;4574;51.072;17.174;2023-05-29T01:06:56;15.93;;;6.20;;
9076;SDS011;4574;51.072;17.174;2023-05-29T01:09:25;10.87;;;4.80;;
9076;SDS011;4574;51.072;17.174;2023-05-29T01:11:58;11.20;;;4.70;;
9076;SDS011;4574;51.072;17.174;2023-05-29T01:14:40;8.13;;;4.33;;
9076;SDS011;4574;51.072;17.174;2023-05-29T01:17:22;5.87;;;3.87;;
9076;SDS011;4574;51.072;17.174;2023-05-29T01:20:06;5.10;;;3.03;;
9076;SDS011;4574;51.072;17.174;2023-05-29T01:22:51;7.63;;;3.47;;
9076;SDS011;4574;51.072;17.174;2023-05-29T01:25:36;5.40;;;3.70;;
9076;SDS011;4574;51.072;17.174;2023-05-29T01:28:20;6.13;;;3.37;;
9076;SDS011;4574;51.072;17.174;2023-05-29T01:30:53;6.87;;;3.80;;
9076;SDS011;4574;51.072;17.174;2023-05-29T01:33:24;7.73;;;3.47;;
9076;SDS011;4574;51.072;17.174;2023-05-29T01:35:54;5.83;;;3.67;;
9076;SDS011;4574;51.072;17.174;2023-05-29T01:38:22;10.43;;;4.00;;
9076;SDS011;4574;51.072;17.174;2023-05-29T01:40:51;7.53;;;3.53;;
9076;SDS011;4574;51.072;17.174;2023-05-29T01:43:25;4.83;;;3.00;;
9076;SDS011;4574;51.072;17.174;2023-05-29T01:45:54;5.87;;;3.57;;
9076;SDS011;4574;51.072;17.174;2023-05-29T01:48:23;5.77;;;3.20;;
9076;SDS011;4574;51.072;17.174;2023-05-29T01:50:52;5.60;;;3.50;;
9076;SDS011;4574;51.072;17.174;2023-05-29T01:53:22;6.83;;;3.07;;
9076;SDS011;4574;51.072;17.174;2023-05-29T01:55:50;5.77;;;3.10;;
9076;SDS011;4574;51.072;17.174;2023-05-29T01:58:19;6.57;;;3.37;;
9076;SDS011;4574;51.072;17.174;2023-05-29T02:00:51;7.43;;;3.37;;
9076;SDS011;4574;51.072;17.174;2023-05-29T02:03:20;6.17;;;3.33;;
9076;SDS011;4574;51.072;17.174;2023-05-29T02:05:50;4.43;;;3.20;;
9076;SDS011;4574;51.072;17.174;2023-05-29T02:08:18;6.90;;;3.03;;
9076;SDS011;4574;51.072;17.174;2023-05-29T02:10:47;6.90;;;3.80;;
9076;SDS011;4574;51.072;17.174;2023-05-29T02:13:16;7.03;;;3.13;;
9076;SDS011;4574;51.072;17.174;2023-05-29T02:15:44;5.07;;;3.10;;
9076;SDS011;4574;51.072;17.174;2023-05-29T02:18:15;6.90;;;3.73;;
9076;SDS011;4574;51.072;17.174;2023-05-29T02:20:46;4.20;;;3.10;;
9076;SDS011;4574;51.072;17.174;2023-05-29T02:23:15;4.63;;;3.20;;
9076;SDS011;4574;51.072;17.174;2023-05-29T02:25:44;7.50;;;3.57;;
9076;SDS011;4574;51.072;17.174;2023-05-29T02:28:12;5.97;;;3.77;;
9076;SDS011;4574;51.072;17.174;2023-05-29T02:30:41;6.77;;;3.03;;
9076;SDS011;4574;51.072;17.174;2023-05-29T02:33:10;7.67;;;2.97;;
9076;SDS011;4574;51.072;17.174;2023-05-29T02:35:40;6.87;;;3.33;;
9076;SDS011;4574;51.072;17.174;2023-05-29T02:38:08;4.43;;;2.93;;
9076;SDS011;4574;51.072;17.174;2023-05-29T02:40:37;6.17;;;3.03;;
9076;SDS011;4574;51.072;17.174;2023-05-29T02:43:05;5.47;;;3.13;;
9076;SDS011;4574;51.072;17.174;2023-05-29T02:45:36;5.57;;;2.83;;
9076;SDS011;4574;51.072;17.174;2023-05-29T02:48:04;5.37;;;3.10;;
9076;SDS011;4574;51.072;17.174;2023-05-29T02:50:34;3.97;;;2.90;;
9076;SDS011;4574;51.072;17.174;2023-05-29T02:53:04;4.63;;;3.13;;
9076;SDS011;4574;51.072;17.174;2023-05-29T02:55:33;5.67;;;2.87;;
9076;SDS011;4574;51.072;17.174;2023-05-29T02:58:02;5.50;;;2.80;;
9076;SDS011;4574;51.072;17.174;2023-05-29T03:00:31;5.23;;;3.20;;
9076;SDS011;4574;51.072;17.174;2023-05-29T03:03:00;5.03;;;3.03;;
9076;SDS011;4574;51.072;17.174;2023-05-29T03:05:30;7.87;;;3.50;;
9076;SDS011;4574;51.072;17.174;2023-05-29T03:07:58;6.60;;;3.57;;
9076;SDS011;4574;51.072;17.174;2023-05-29T03:10:28;9.90;;;3.70;;
9076;SDS011;4574;51.072;17.174;2023-05-29T03:12:57;8.40;;;3.17;;
9076;SDS011;4574;51.072;17.174;2023-05-29T03:15:25;7.90;;;3.40;;
9076;SDS011;4574;51.072;17.174;2023-05-29T03:17:54;7.63;;;3.97;;
9076;SDS011;4574;51.072;17.174;2023-05-29T03:20:22;6.63;;;3.60;;
9076;SDS011;4574;51.072;17.174;2023-05-29T03:22:52;10.27;;;3.57;;
9076;SDS011;4574;51.072;17.174;2023-05-29T03:25:22;9.87;;;3.27;;
9076;SDS011;4574;51.072;17.174;2023-05-29T03:27:52;6.80;;;3.90;;
9076;SDS011;4574;51.072;17.174;2023-05-29T03:30:21;5.60;;;3.60;;
9076;SDS011;4574;51.072;17.174;2023-05-29T03:32:49;8.40;;;3.67;;
9076;SDS011;4574;51.072;17.174;2023-05-29T03:35:18;7.13;;;3.77;;
9076;SDS011;4574;51.072;17.174;2023-05-29T03:37:47;6.03;;;3.67;;
9076;SDS011;4574;51.072;17.174;2023-05-29T03:40:15;10.70;;;3.80;;
9076;SDS011;4574;51.072;17.174;2023-05-29T03:42:44;10.70;;;3.27;;
9076;SDS011;4574;51.072;17.174;2023-05-29T03:45:14;6.63;;;3.63;;
9076;SDS011;4574;51.072;17.174;2023-05-29T03:47:43;7.60;;;3.47;;
9076;SDS011;4574;51.072;17.174;2023-05-29T03:50:11;9.93;;;3.73;;
9076;SDS011;4574;51.072;17.174;2023-05-29T03:52:41;10.37;;;3.93;;
9076;SDS011;4574;51.072;17.174;2023-05-29T03:55:10;6.93;;;3.30;;
9076;SDS011;4574;51.072;17.174;2023-05-29T03:57:41;10.60;;;3.70;;
9076;SDS011;4574;51.072;17.174;2023-05-29T04:00:10;7.27;;;3.70;;
9076;SDS011;4574;51.072;17.174;2023-05-29T04:02:41;5.43;;;3.27;;
9076;SDS011;4574;51.072;17.174;2023-05-29T04:05:10;8.70;;;3.40;;
9076;SDS011;4574;51.072;17.174;2023-05-29T04:07:39;8.13;;;3.60;;
9076;SDS011;4574;51.072;17.174;2023-05-29T04:10:08;5.47;;;3.50;;
9076;SDS011;4574;51.072;17.174;2023-05-29T04:12:37;10.70;;;3.50;;
9076;SDS011;4574;51.072;17.174;2023-05-29T04:15:07;8.80;;;3.80;;
9076;SDS011;4574;51.072;17.174;2023-05-29T04:17:36;6.70;;;3.67;;
9076;SDS011;4574;51.072;17.174;2023-05-29T04:20:08;6.50;;;4.37;;
9076;SDS011;4574;51.072;17.174;2023-05-29T04:22:37;8.20;;;3.67;;
9076;SDS011;4574;51.072;17.174;2023-05-29T04:25:06;9.33;;;3.83;;
9076;SDS011;4574;51.072;17.174;2023-05-29T04:27:35;13.30;;;5.10;;
9076;SDS011;4574;51.072;17.174;2023-05-29T04:30:05;11.27;;;4.77;;
9076;SDS011;4574;51.072;17.174;2023-05-29T04:32:34;7.47;;;3.73;;
9076;SDS011;4574;51.072;17.174;2023-05-29T04:35:03;6.40;;;3.37;;
9076;SDS011;4574;51.072;17.174;2023-05-29T04:37:34;6.37;;;3.60;;
9076;SDS011;4574;51.072;17.174;2023-05-29T04:40:05;7.03;;;3.83;;
9076;SDS011;4574;51.072;17.174;2023-05-29T04:42:41;4.73;;;3.03;;
9076;SDS011;4574;51.072;17.174;2023-05-29T04:45:11;7.03;;;3.47;;
9076;SDS011;4574;51.072;17.174;2023-05-29T04:47:41;11.77;;;2.87;;
9076;SDS011;4574;51.072;17.174;2023-05-29T04:50:11;5.83;;;3.27;;
9076;SDS011;4574;51.072;17.174;2023-05-29T04:52:44;6.93;;;3.17;;
9076;SDS011;4574;51.072;17.174;2023-05-29T04:55:13;11.30;;;3.40;;
9076;SDS011;4574;51.072;17.174;2023-05-29T04:57:43;7.77;;;3.50;;
9076;SDS011;4574;51.072;17.174;2023-05-29T05:00:12;5.17;;;3.37;;
9076;SDS011;4574;51.072;17.174;2023-05-29T05:02:42;5.30;;;3.20;;
9076;SDS011;4574;51.072;17.174;2023-05-29T05:05:11;4.73;;;3.10;;
9076;SDS011;4574;51.072;17.174;2023-05-29T05:07:40;12.70;;;3.40;;
9076;SDS011;4574;51.072;17.174;2023-05-29T05:10:11;5.67;;;3.20;;
9076;SDS011;4574;51.072;17.174;2023-05-29T05:12:40;7.70;;;3.43;;
9076;SDS011;4574;51.072;17.174;2023-05-29T05:15:09;6.47;;;3.57;;
9076;SDS011;4574;51.072;17.174;2023-05-29T05:17:38;9.53;;;3.40;;
9076;SDS011;4574;51.072;17.174;2023-05-29T05:20:07;9.70;;;4.60;;
9076;SDS011;4574;51.072;17.174;2023-05-29T05:22:36;12.03;;;5.07;;
9076;SDS011;4574;51.072;17.174;2023-05-29T05:25:05;6.27;;;3.63;;
9076;SDS011;4574;51.072;17.174;2023-05-29T05:27:38;12.37;;;3.90;;
9076;SDS011;4574;51.072;17.174;2023-05-29T05:30:07;9.30;;;3.93;;
9076;SDS011;4574;51.072;17.174;2023-05-29T05:32:36;7.07;;;4.20;;
9076;SDS011;4574;51.072;17.174;2023-05-29T05:35:05;7.13;;;4.10;;
9076;SDS011;4574;51.072;17.174;2023-05-29T05:37:35;5.77;;;3.13;;
9076;SDS011;4574;51.072;17.174;2023-05-29T05:40:04;8.97;;;3.83;;
9076;SDS011;4574;51.072;17.174;2023-05-29T05:42:34;8.30;;;3.73;;
9076;SDS011;4574;51.072;17.174;2023-05-29T05:45:05;12.07;;;3.87;;
9076;SDS011;4574;51.072;17.174;2023-05-29T05:47:34;8.23;;;2.93;;
9076;SDS011;4574;51.072;17.174;2023-05-29T05:50:03;10.73;;;3.30;;
9076;SDS011;4574;51.072;17.174;2023-05-29T05:52:33;9.40;;;4.20;;
9076;SDS011;4574;51.072;17.174;2023-05-29T05:55:02;11.93;;;3.17;;
9076;SDS011;4574;51.072;17.174;2023-05-29T05:57:31;10.63;;;4.13;;
9076;SDS011;4574;51.072;17.174;2023-05-29T06:00:00;11.20;;;3.50;;
9076;SDS011;4574;51.072;17.174;2023-05-29T06:02:33;9.10;;;3.73;;
9076;SDS011;4574;51.072;17.174;2023-05-29T06:05:02;5.27;;;3.07;;
9076;SDS011;4574;51.072;17.174;2023-05-29T06:07:34;5.77;;;3.40;;
9076;SDS011;4574;51.072;17.174;2023-05-29T06:10:03;8.47;;;3.10;;
9076;SDS011;4574;51.072;17.174;2023-05-29T06:12:33;6.60;;;2.80;;
9076;SDS011;4574;51.072;17.174;2023-05-29T06:15:02;8.57;;;2.70;;
9076;SDS011;4574;51.072;17.174;2023-05-29T06:17:33;6.40;;;3.10;;
9076;SDS011;4574;51.072;17.174;2023-05-29T06:20:02;5.07;;;2.73;;
9076;SDS011;4574;51.072;17.174;2023-05-29T06:22:35;8.37;;;3.37;;
9076;SDS011;4574;51.072;17.174;2023-05-29T06:25:05;7.77;;;3.33;;
9076;SDS011;4574;51.072;17.174;2023-05-29T06:27:35;4.10;;;2.80;;
9076;SDS011;4574;51.072;17.174;2023-05-29T06:30:04;8.43;;;3.03;;
9076;SDS011;4574;51.072;17.174;2023-05-29T06:32:35;7.77;;;2.77;;
9076;SDS011;4574;51.072;17.174;2023-05-29T06:35:04;8.13;;;3.20;;
9076;SDS011;4574;51.072;17.174;2023-05-29T06:37:34;5.80;;;3.10;;
9076;SDS011;4574;51.072;17.174;2023-05-29T06:40:02;7.73;;;2.90;;
9076;SDS011;4574;51.072;17.174;2023-05-29T06:42:32;4.23;;;2.40;;
9076;SDS011;4574;51.072;17.174;2023-05-29T06:45:01;7.97;;;3.20;;
9076;SDS011;4574;51.072;17.174;2023-05-29T06:47:29;6.23;;;3.60;;
9076;SDS011;4574;51.072;17.174;2023-05-29T06:50:00;4.77;;;2.67;;
9076;SDS011;4574;51.072;17.174;2023-05-29T06:52:29;6.83;;;2.70;;
9076;SDS011;4574;51.072;17.174;2023-05-29T06:55:01;5.07;;;2.73;;
9076;SDS011;4574;51.072;17.174;2023-05-29T06:57:30;7.00;;;2.47;;
9076;SDS011;4574;51.072;17.174;2023-05-29T06:59:59;3.60;;;2.57;;
9076;SDS011;4574;51.072;17.174;2023-05-29T07:02:28;8.27;;;2.70;;
9076;SDS011;4574;51.072;17.174;2023-05-29T07:04:57;5.83;;;2.77;;
9076;SDS011;4574;51.072;17.174;2023-05-29T07:07:27;6.53;;;2.40;;
9076;SDS011;4574;51.072;17.174;2023-05-29T07:09:56;9.17;;;2.77;;
9076;SDS011;4574;51.072;17.174;2023-05-29T07:12:24;4.67;;;2.50;;
9076;SDS011;4574;51.072;17.174;2023-05-29T07:14:53;6.43;;;2.30;;
9076;SDS011;4574;51.072;17.174;2023-05-29T07:17:21;8.97;;;2.20;;
9076;SDS011;4574;51.072;17.174;2023-05-29T07:19:50;10.33;;;2.40;;
9076;SDS011;4574;51.072;17.174;2023-05-29T07:22:20;3.30;;;1.97;;
9076;SDS011;4574;51.072;17.174;2023-05-29T07:24:50;7.00;;;2.20;;
9076;SDS011;4574;51.072;17.174;2023-05-29T07:27:20;4.23;;;2.23;;
9076;SDS011;4574;51.072;17.174;2023-05-29T07:29:48;7.87;;;2.47;;
9076;SDS011;4574;51.072;17.174;2023-05-29T07:32:17;3.07;;;2.30;;
9076;SDS011;4574;51.072;17.174;2023-05-29T07:34:46;3.07;;;2.00;;
9076;SDS011;4574;51.072;17.174;2023-05-29T07:37:16;4.73;;;2.00;;
9076;SDS011;4574;51.072;17.174;2023-05-29T07:39:45;3.70;;;1.80;;
9076;SDS011;4574;51.072;17.174;2023-05-29T07:42:16;8.20;;;1.90;;
9076;SDS011;4574;51.072;17.174;2023-05-29T07:44:44;3.80;;;1.60;;
9076;SDS011;4574;51.072;17.174;2023-05-29T07:47:14;8.63;;;1.80;;
9076;SDS011;4574;51.072;17.174;2023-05-29T07:49:43;2.57;;;1.60;;
9076;SDS011;4574;51.072;17.174;2023-05-29T07:52:11;3.47;;;1.63;;
9076;SDS011;4574;51.072;17.174;2023-05-29T07:54:40;3.87;;;1.60;;
9076;SDS011;4574;51.072;17.174;2023-05-29T07:57:08;5.63;;;1.70;;
9076;SDS011;4574;51.072;17.174;2023-05-29T07:59:40;3.33;;;1.60;;
9076;SDS011;4574;51.072;17.174;2023-05-29T08:02:09;1.97;;;1.60;;
9076;SDS011;4574;51.072;17.174;2023-05-29T08:04:38;5.83;;;1.70;;
9076;SDS011;4574;51.072;17.174;2023-05-29T08:07:09;6.53;;;1.53;;
9076;SDS011;4574;51.072;17.174;2023-05-29T08:09:43;4.23;;;1.40;;
9076;SDS011;4574;51.072;17.174;2023-05-29T08:12:11;5.10;;;1.37;;
9076;SDS011;4574;51.072;17.174;2023-05-29T08:14:41;2.97;;;1.37;;
9076;SDS011;4574;51.072;17.174;2023-05-29T08:17:10;4.70;;;1.37;;
9076;SDS011;4574;51.072;17.174;2023-05-29T08:19:39;5.87;;;2.43;;
9076;SDS011;4574;51.072;17.174;2023-05-29T08:22:07;4.33;;;1.70;;
9076;SDS011;4574;51.072;17.174;2023-05-29T08:24:40;2.30;;;1.40;;
9076;SDS011;4574;51.072;17.174;2023-05-29T08:27:09;2.03;;;1.70;;
9076;SDS011;4574;51.072;17.174;2023-05-29T08:29:37;3.23;;;1.50;;
9076;SDS011;4574;51.072;17.174;2023-05-29T08:32:07;3.70;;;1.70;;
9076;SDS011;4574;51.072;17.174;2023-05-29T08:34:36;2.80;;;1.53;;
9076;SDS011;4574;51.072;17.174;2023-05-29T08:37:05;4.00;;;1.67;;
9076;SDS011;4574;51.072;17.174;2023-05-29T08:39:39;4.90;;;1.50;;
9076;SDS011;4574;51.072;17.174;2023-05-29T08:42:10;5.93;;;1.70;;
9076;SDS011;4574;51.072;17.174;2023-05-29T08:44:41;1.90;;;1.30;;
9076;SDS011;4574;51.072;17.174;2023-05-29T08:47:16;2.20;;;1.53;;
9076;SDS011;4574;51.072;17.174;2023-05-29T08:49:49;7.40;;;1.67;;
9076;SDS011;4574;51.072;17.174;2023-05-29T08:52:23;4.10;;;1.33;;
9076;SDS011;4574;51.072;17.174;2023-05-29T08:54:53;2.80;;;1.53;;
9076;SDS011;4574;51.072;17.174;2023-05-29T08:57:22;7.90;;;1.50;;
9076;SDS011;4574;51.072;17.174;2023-05-29T08:59:53;2.43;;;1.67;;
9076;SDS011;4574;51.072;17.174;2023-05-29T09:02:25;8.63;;;1.57;;
9076;SDS011;4574;51.072;17.174;2023-05-29T09:04:54;2.80;;;1.37;;
9076;SDS011;4574;51.072;17.174;2023-05-29T09:07:26;7.00;;;1.70;;
9076;SDS011;4574;51.072;17.174;2023-05-29T09:09:55;5.30;;;1.83;;
9076;SDS011;4574;51.072;17.174;2023-05-29T09:12:25;5.10;;;1.70;;
9076;SDS011;4574;51.072;17.174;2023-05-29T09:14:54;3.37;;;1.80;;
9076;SDS011;4574;51.072;17.174;2023-05-29T09:17:23;2.83;;;1.50;;
9076;SDS011;4574;51.072;17.174;2023-05-29T09:19:53;5.07;;;2.23;;
9076;SDS011;4574;51.072;17.174;2023-05-29T09:22:21;7.70;;;1.63;;
9076;SDS011;4574;51.072;17.174;2023-05-29T09:24:50;4.50;;;1.40;;
9076;SDS011;4574;51.072;17.174;2023-05-29T09:27:19;4.77;;;1.50;;
9076;SDS011;4574;51.072;17.174;2023-05-29T09:29:47;4.43;;;1.70;;
9076;SDS011;4574;51.072;17.174;2023-05-29T09:32:18;3.83;;;1.67;;
9076;SDS011;4574;51.072;17.174;2023-05-29T09:34:47;4.23;;;1.77;;
9076;SDS011;4574;51.072;17.174;2023-05-29T09:37:18;3.33;;;1.50;;
9076;SDS011;4574;51.072;17.174;2023-05-29T09:39:49;3.03;;;1.80;;
9076;SDS011;4574;51.072;17.174;2023-05-29T09:42:19;2.57;;;1.63;;
9076;SDS011;4574;51.072;17.174;2023-05-29T09:44:51;4.50;;;1.47;;
9076;SDS011;4574;51.072;17.174;2023-05-29T09:47:21;4.50;;;1.70;;
9076;SDS011;4574;51.072;17.174;2023-05-29T09:49:49;1.80;;;1.53;;
9076;SDS011;4574;51.072;17.174;2023-05-29T09:52:21;1.83;;;1.57;;
9076;SDS011;4574;51.072;17.174;2023-05-29T09:54:50;4.03;;;2.57;;
9076;SDS011;4574;51.072;17.174;2023-05-29T09:57:19;3.43;;;1.50;;
9076;SDS011;4574;51.072;17.174;2023-05-29T09:59:50;5.10;;;1.90;;
9076;SDS011;4574;51.072;17.174;2023-05-29T10:02:20;2.73;;;1.47;;
9076;SDS011;4574;51.072;17.174;2023-05-29T10:04:49;3.67;;;1.77;;
9076;SDS011;4574;51.072;17.174;2023-05-29T10:07:22;3.70;;;1.30;;
9076;SDS011;4574;51.072;17.174;2023-05-29T10:09:58;2.57;;;1.60;;
9076;SDS011;4574;51.072;17.174;2023-05-29T10:12:29;3.03;;;1.60;;
9076;SDS011;4574;51.072;17.174;2023-05-29T10:15:01;7.57;;;1.70;;
9076;SDS011;4574;51.072;17.174;2023-05-29T10:17:33;2.10;;;1.60;;
9076;SDS011;4574;51.072;17.174;2023-05-29T10:20:04;3.47;;;1.90;;
9076;SDS011;4574;51.072;17.174;2023-05-29T10:22:36;2.13;;;1.93;;
9076;SDS011;4574;51.072;17.174;2023-05-29T10:25:10;5.43;;;2.00;;
9076;SDS011;4574;51.072;17.174;2023-05-29T10:27:41;8.43;;;1.70;;
9076;SDS011;4574;51.072;17.174;2023-05-29T10:30:12;2.70;;;1.60;;
9076;SDS011;4574;51.072;17.174;2023-05-29T10:32:56;7.20;;;2.23;;
9076;SDS011;4574;51.072;17.174;2023-05-29T10:35:39;3.87;;;1.70;;
9076;SDS011;4574;51.072;17.174;2023-05-29T10:38:14;3.37;;;1.83;;
9076;SDS011;4574;51.072;17.174;2023-05-29T10:40:45;4.37;;;2.20;;
9076;SDS011;4574;51.072;17.174;2023-05-29T10:43:29;3.17;;;1.70;;
9076;SDS011;4574;51.072;17.174;2023-05-29T10:46:01;5.07;;;1.63;;
9076;SDS011;4574;51.072;17.174;2023-05-29T10:48:40;4.27;;;1.77;;
9076;SDS011;4574;51.072;17.174;2023-05-29T10:51:28;2.73;;;2.13;;
9076;SDS011;4574;51.072;17.174;2023-05-29T10:54:01;6.17;;;1.73;;
9076;SDS011;4574;51.072;17.174;2023-05-29T10:56:29;3.50;;;2.00;;
9076;SDS011;4574;51.072;17.174;2023-05-29T10:58:59;6.07;;;1.90;;
9076;SDS011;4574;51.072;17.174;2023-05-29T11:01:31;3.90;;;1.90;;
9076;SDS011;4574;51.072;17.174;2023-05-29T11:06:54;3.90;;;1.50;;
9076;SDS011;4574;51.072;17.174;2023-05-29T11:09:28;7.73;;;2.07;;
9076;SDS011;4574;51.072;17.174;2023-05-29T11:12:17;2.43;;;1.60;;
9076;SDS011;4574;51.072;17.174;2023-05-29T11:15:04;3.10;;;1.43;;
9076;SDS011;4574;51.072;17.174;2023-05-29T11:17:43;3.37;;;1.60;;
9076;SDS011;4574;51.072;17.174;2023-05-29T11:20:21;3.50;;;1.60;;
9076;SDS011;4574;51.072;17.174;2023-05-29T11:23:02;6.23;;;1.60;;
9076;SDS011;4574;51.072;17.174;2023-05-29T11:25:36;5.10;;;1.77;;
9076;SDS011;4574;51.072;17.174;2023-05-29T11:28:05;8.73;;;2.10;;
9076;SDS011;4574;51.072;17.174;2023-05-29T11:30:41;6.63;;;1.97;;
9076;SDS011;4574;51.072;17.174;2023-05-29T11:33:23;3.03;;;1.73;;
9076;SDS011;4574;51.072;17.174;2023-05-29T11:35:54;5.23;;;1.97;;
9076;SDS011;4574;51.072;17.174;2023-05-29T11:38:25;23.70;;;2.00;;
9076;SDS011;4574;51.072;17.174;2023-05-29T11:40:56;4.93;;;1.90;;
9076;SDS011;4574;51.072;17.174;2023-05-29T11:43:26;5.80;;;2.67;;
9076;SDS011;4574;51.072;17.174;2023-05-29T11:45:55;6.97;;;2.20;;
9076;SDS011;4574;51.072;17.174;2023-05-29T11:48:24;1.87;;;1.73;;
9076;SDS011;4574;51.072;17.174;2023-05-29T11:50:53;2.57;;;1.33;;
9076;SDS011;4574;51.072;17.174;2023-05-29T11:53:21;2.83;;;1.87;;
9076;SDS011;4574;51.072;17.174;2023-05-29T11:55:50;6.33;;;2.87;;
9076;SDS011;4574;51.072;17.174;2023-05-29T11:58:21;3.37;;;1.90;;
9076;SDS011;4574;51.072;17.174;2023-05-29T12:00:50;2.60;;;1.70;;
9076;SDS011;4574;51.072;17.174;2023-05-29T12:03:19;8.73;;;2.67;;
9076;SDS011;4574;51.072;17.174;2023-05-29T12:05:48;4.23;;;2.13;;
9076;SDS011;4574;51.072;17.174;2023-05-29T12:08:21;4.27;;;1.60;;
9076;SDS011;4574;51.072;17.174;2023-05-29T12:10:51;3.87;;;1.80;;
9076;SDS011;4574;51.072;17.174;2023-05-29T12:13:22;3.87;;;1.97;;
9076;SDS011;4574;51.072;17.174;2023-05-29T12:15:52;5.60;;;2.10;;
9076;SDS011;4574;51.072;17.174;2023-05-29T12:18:24;1.93;;;1.57;;
9076;SDS011;4574;51.072;17.174;2023-05-29T12:20:56;6.73;;;1.57;;
9076;SDS011;4574;51.072;17.174;2023-05-29T12:23:27;1.70;;;1.60;;
9076;SDS011;4574;51.072;17.174;2023-05-29T12:25:56;5.47;;;1.73;;
9076;SDS011;4574;51.072;17.174;2023-05-29T12:28:28;2.37;;;1.70;;
9076;SDS011;4574;51.072;17.174;2023-05-29T12:31:00;3.97;;;1.87;;
9076;SDS011;4574;51.072;17.174;2023-05-29T12:33:29;4.07;;;1.90;;
9076;SDS011;4574;51.072;17.174;2023-05-29T12:36:02;2.20;;;1.60;;
9076;SDS011;4574;51.072;17.174;2023-05-29T12:38:33;5.33;;;1.50;;
9076;SDS011;4574;51.072;17.174;2023-05-29T12:41:21;3.23;;;1.70;;
9076;SDS011;4574;51.072;17.174;2023-05-29T12:43:54;4.00;;;1.70;;
9076;SDS011;4574;51.072;17.174;2023-05-29T12:46:24;3.53;;;1.70;;
9076;SDS011;4574;51.072;17.174;2023-05-29T12:48:53;2.93;;;1.70;;
9076;SDS011;4574;51.072;17.174;2023-05-29T12:51:23;1.87;;;1.57;;
9076;SDS011;4574;51.072;17.174;2023-05-29T12:53:52;3.83;;;1.63;;
9076;SDS011;4574;51.072;17.174;2023-05-29T12:56:22;5.03;;;2.10;;
9076;SDS011;4574;51.072;17.174;2023-05-29T12:58:53;2.83;;;1.77;;
9076;SDS011;4574;51.072;17.174;2023-05-29T13:01:23;3.73;;;1.90;;
9076;SDS011;4574;51.072;17.174;2023-05-29T13:03:51;5.33;;;1.70;;
9076;SDS011;4574;51.072;17.174;2023-05-29T13:06:20;5.00;;;1.77;;
9076;SDS011;4574;51.072;17.174;2023-05-29T13:08:49;6.07;;;1.63;;
9076;SDS011;4574;51.072;17.174;2023-05-29T13:11:17;4.03;;;1.87;;
9076;SDS011;4574;51.072;17.174;2023-05-29T13:13:46;2.83;;;1.77;;
9076;SDS011;4574;51.072;17.174;2023-05-29T13:16:16;3.27;;;1.80;;
9076;SDS011;4574;51.072;17.174;2023-05-29T13:18:45;4.03;;;1.93;;
9076;SDS011;4574;51.072;17.174;2023-05-29T13:21:14;6.40;;;2.07;;
9076;SDS011;4574;51.072;17.174;2023-05-29T13:23:42;2.17;;;1.60;;
9076;SDS011;4574;51.072;17.174;2023-05-29T13:26:11;3.73;;;1.70;;
9076;SDS011;4574;51.072;17.174;2023-05-29T13:28:39;4.03;;;1.90;;
9076;SDS011;4574;51.072;17.174;2023-05-29T13:31:08;6.67;;;1.97;;
9076;SDS011;4574;51.072;17.174;2023-05-29T13:33:38;3.93;;;1.50;;
9076;SDS011;4574;51.072;17.174;2023-05-29T13:36:06;1.97;;;1.67;;
9076;SDS011;4574;51.072;17.174;2023-05-29T13:38:35;3.07;;;2.00;;
9076;SDS011;4574;51.072;17.174;2023-05-29T13:41:04;3.63;;;2.03;;
9076;SDS011;4574;51.072;17.174;2023-05-29T13:43:33;2.60;;;1.50;;
9076;SDS011;4574;51.072;17.174;2023-05-29T13:46:10;2.83;;;1.60;;
9076;SDS011;4574;51.072;17.174;2023-05-29T13:48:40;3.67;;;1.77;;
9076;SDS011;4574;51.072;17.174;2023-05-29T13:51:09;4.47;;;1.60;;
9076;SDS011;4574;51.072;17.174;2023-05-29T13:53:38;3.53;;;1.70;;
9076;SDS011;4574;51.072;17.174;2023-05-29T13:56:06;4.10;;;1.60;;
9076;SDS011;4574;51.072;17.174;2023-05-29T13:58:35;3.70;;;1.67;;
9076;SDS011;4574;51.072;17.174;2023-05-29T14:01:04;3.00;;;1.63;;
9076;SDS011;4574;51.072;17.174;2023-05-29T14:03:32;2.87;;;1.60;;
9076;SDS011;4574;51.072;17.174;2023-05-29T14:06:03;2.47;;;1.80;;
9076;SDS011;4574;51.072;17.174;2023-05-29T14:08:32;4.47;;;1.90;;
9076;SDS011;4574;51.072;17.174;2023-05-29T14:11:01;4.87;;;2.00;;
9076;SDS011;4574;51.072;17.174;2023-05-29T14:13:29;2.60;;;1.60;;
9076;SDS011;4574;51.072;17.174;2023-05-29T14:15:58;3.00;;;1.80;;
9076;SDS011;4574;51.072;17.174;2023-05-29T14:18:26;3.23;;;2.33;;
9076;SDS011;4574;51.072;17.174;2023-05-29T14:20:55;3.77;;;2.00;;
9076;SDS011;4574;51.072;17.174;2023-05-29T14:23:25;3.03;;;2.00;;
9076;SDS011;4574;51.072;17.174;2023-05-29T14:25:54;3.10;;;2.13;;
9076;SDS011;4574;51.072;17.174;2023-05-29T14:28:23;5.30;;;1.90;;
9076;SDS011;4574;51.072;17.174;2023-05-29T14:30:51;4.70;;;1.97;;
9076;SDS011;4574;51.072;17.174;2023-05-29T14:33:20;2.93;;;1.90;;
9076;SDS011;4574;51.072;17.174;2023-05-29T14:35:48;6.73;;;2.10;;
9076;SDS011;4574;51.072;17.174;2023-05-29T14:38:17;3.47;;;1.87;;
9076;SDS011;4574;51.072;17.174;2023-05-29T14:40:47;5.50;;;1.97;;
9076;SDS011;4574;51.072;17.174;2023-05-29T14:43:33;3.17;;;2.00;;
9076;SDS011;4574;51.072;17.174;2023-05-29T14:46:02;4.37;;;1.70;;
9076;SDS011;4574;51.072;17.174;2023-05-29T14:48:31;3.83;;;1.90;;
9076;SDS011;4574;51.072;17.174;2023-05-29T14:51:00;4.77;;;1.93;;
9076;SDS011;4574;51.072;17.174;2023-05-29T14:53:28;2.37;;;1.90;;
9076;SDS011;4574;51.072;17.174;2023-05-29T14:56:01;2.03;;;1.83;;
9076;SDS011;4574;51.072;17.174;2023-05-29T14:58:30;5.43;;;1.87;;
9076;SDS011;4574;51.072;17.174;2023-05-29T15:01:02;5.77;;;1.80;;
9076;SDS011;4574;51.072;17.174;2023-05-29T15:03:31;2.67;;;1.80;;
9076;SDS011;4574;51.072;17.174;2023-05-29T15:06:02;4.80;;;1.90;;
9076;SDS011;4574;51.072;17.174;2023-05-29T15:08:31;3.97;;;2.40;;
9076;SDS011;4574;51.072;17.174;2023-05-29T15:11:03;3.73;;;2.30;;
9076;SDS011;4574;51.072;17.174;2023-05-29T15:13:32;4.80;;;2.10;;
9076;SDS011;4574;51.072;17.174;2023-05-29T15:16:04;3.83;;;2.20;;
9076;SDS011;4574;51.072;17.174;2023-05-29T15:18:35;4.07;;;1.93;;
9076;SDS011;4574;51.072;17.174;2023-05-29T15:21:03;3.23;;;1.90;;
9076;SDS011;4574;51.072;17.174;2023-05-29T15:23:32;4.97;;;2.07;;